Time;durP1;ratioP1;P1;durP2;ratioP2;P2;SDS_P1;SDS_P2;PMS_P1;PMS_P2;Temp;Humidity;BMP_temperature;BMP_pressure;BME280_temperature;BME280_humidity;BME280_pressure;Samples;Min_cycle;Max_cycle;Signal;HPM_P1;HPM_P2
2022/12/01 00:01:22;;;;;;;35.23;14.90;;;6.50;99.90;;;;;;5071694;28;21031;-65
2022/12/01 00:03:48;;;;;;;36.47;17.60;;;6.50;99.90;;;;;;5071462;28;20485;-65
2022/12/01 00:06:17;;;;;;;43.40;18.63;;;6.50;99.90;;;;;;5071555;28;20536;-65
2022/12/01 00:11:27;;;;;;;32.07;15.67;;;6.50;99.90;;;;;;5071996;28;20497;-66
2022/12/01 00:13:54;;;;;;;33.90;16.90;;;6.50;99.90;;;;;;5070995;28;20467;-65
2022/12/01 00:16:21;;;;;;;33.17;17.27;;;6.50;99.90;;;;;;5071751;28;20842;-65
2022/12/01 00:18:50;;;;;;;34.07;17.30;;;6.50;99.90;;;;;;5071684;28;20445;-65
2022/12/01 00:21:18;;;;;;;34.27;16.63;;;6.50;99.90;;;;;;5071523;28;20817;-66
2022/12/01 00:23:47;;;;;;;38.50;15.90;;;6.50;99.90;;;;;;5070742;28;20496;-66
2022/12/01 00:26:14;;;;;;;34.17;16.73;;;6.50;99.90;;;;;;5071202;28;20526;-65
2022/12/01 00:28:41;;;;;;;40.03;16.87;;;6.50;99.90;;;;;;5071680;28;20445;-65
2022/12/01 00:31:08;;;;;;;34.27;17.87;;;6.50;99.90;;;;;;5071553;28;20455;-65
2022/12/01 00:33:34;;;;;;;33.70;17.50;;;6.50;99.90;;;;;;5070935;28;20518;-65
2022/12/01 00:36:01;;;;;;;35.00;17.23;;;6.70;99.90;;;;;;5071397;28;20494;-66
2022/12/01 00:38:28;;;;;;;29.77;15.43;;;6.50;99.90;;;;;;5071184;28;20459;-66
2022/12/01 00:40:56;;;;;;;31.37;14.63;;;6.50;99.90;;;;;;5070954;28;20464;-65
2022/12/01 00:43:23;;;;;;;33.13;15.70;;;6.50;99.90;;;;;;5070809;28;20449;-66
2022/12/01 00:45:50;;;;;;;30.97;15.30;;;6.50;99.90;;;;;;5071063;28;20452;-66
2022/12/01 00:48:17;;;;;;;42.80;19.00;;;6.50;99.90;;;;;;5071191;28;20455;-66
2022/12/01 00:50:45;;;;;;;40.23;19.43;;;6.50;99.90;;;;;;5070887;28;20444;-65
2022/12/01 00:53:11;;;;;;;40.97;18.83;;;6.50;99.90;;;;;;5070878;28;20454;-66
2022/12/01 00:55:40;;;;;;;40.40;18.03;;;6.50;99.90;;;;;;5071078;28;20458;-65
2022/12/01 00:58:08;;;;;;;35.30;17.90;;;6.50;99.90;;;;;;5074598;28;20471;-65
2022/12/01 01:00:37;;;;;;;40.13;19.00;;;6.50;99.90;;;;;;5075204;28;20445;-65
2022/12/01 01:03:04;;;;;;;38.80;18.03;;;6.50;99.90;;;;;;5074979;28;20452;-65
2022/12/01 01:05:31;;;;;;;41.33;19.43;;;6.50;99.90;;;;;;5074622;28;20903;-65
2022/12/01 01:07:57;;;;;;;33.57;16.63;;;6.50;99.90;;;;;;5075025;28;20452;-65
2022/12/01 01:10:24;;;;;;;39.47;18.10;;;6.50;99.90;;;;;;5075035;28;20444;-65
2022/12/01 01:12:50;;;;;;;38.13;16.40;;;6.50;99.90;;;;;;5074761;28;20454;-66
2022/12/01 01:15:18;;;;;;;43.37;18.10;;;6.50;99.90;;;;;;5074810;28;20461;-65
2022/12/01 01:17:45;;;;;;;31.00;17.20;;;6.50;99.90;;;;;;5074745;28;20863;-65
2022/12/01 01:20:13;;;;;;;32.30;15.53;;;6.40;99.90;;;;;;5074928;28;20839;-65
2022/12/01 01:22:39;;;;;;;39.70;15.93;;;6.10;99.90;;;;;;5074706;28;20444;-65
2022/12/01 01:25:07;;;;;;;29.07;15.43;;;6.00;99.90;;;;;;5074514;28;21039;-65
2022/12/01 01:27:34;;;;;;;36.00;17.20;;;5.90;99.90;;;;;;5074862;28;20452;-65
2022/12/01 01:30:00;;;;;;;28.70;15.00;;;5.80;99.90;;;;;;5074697;28;20475;-65
2022/12/01 01:32:28;;;;;;;29.53;14.67;;;5.70;99.90;;;;;;5074159;28;20510;-65
2022/12/01 01:34:55;;;;;;;26.60;13.70;;;5.70;99.90;;;;;;5074433;28;20467;-65
2022/12/01 01:37:22;;;;;;;28.17;14.30;;;5.70;99.90;;;;;;5074753;28;20448;-66
2022/12/01 01:39:48;;;;;;;27.20;13.67;;;5.60;99.90;;;;;;5074366;28;20455;-66
2022/12/01 01:42:18;;;;;;;25.43;13.67;;;5.60;99.90;;;;;;5074194;28;20452;-65
2022/12/01 01:44:49;;;;;;;26.40;13.57;;;5.60;99.90;;;;;;5073975;28;20492;-65
2022/12/01 01:47:20;;;;;;;27.03;13.77;;;5.50;99.90;;;;;;5074181;28;20494;-65
2022/12/01 01:49:49;;;;;;;27.77;13.70;;;5.50;99.90;;;;;;5074280;28;20467;-65
2022/12/01 01:52:16;;;;;;;34.07;14.93;;;5.50;99.90;;;;;;5074057;28;20448;-65
2022/12/01 01:54:47;;;;;;;27.20;13.70;;;5.60;99.90;;;;;;5074066;28;20464;-65
2022/12/01 01:57:17;;;;;;;26.33;13.73;;;5.50;99.90;;;;;;5073842;28;20460;-65
2022/12/01 01:59:49;;;;;;;30.60;14.20;;;5.50;99.90;;;;;;5074180;28;20452;-65
2022/12/01 02:02:16;;;;;;;25.97;12.97;;;5.50;99.90;;;;;;5073801;28;20976;-65
2022/12/01 02:04:48;;;;;;;26.33;14.17;;;5.50;99.90;;;;;;5074208;28;20492;-65
2022/12/01 02:07:18;;;;;;;31.20;16.47;;;5.50;99.90;;;;;;5073565;28;20444;-66
2022/12/01 02:09:44;;;;;;;30.00;15.60;;;5.50;99.90;;;;;;5073767;28;20845;-65
2022/12/01 02:12:28;;;;;;;31.13;16.27;;;5.50;99.90;;;;;;5073692;28;20452;-65
2022/12/01 02:15:08;;;;;;;32.80;16.63;;;5.50;99.90;;;;;;5073746;28;20980;-65
2022/12/01 02:17:41;;;;;;;41.80;16.77;;;5.50;99.90;;;;;;5073604;28;20521;-65
2022/12/01 02:20:42;;;;;;;38.37;17.23;;;5.40;99.90;;;;;;5073632;28;20447;-65
2022/12/01 02:23:52;;;;;;;39.43;17.90;;;5.40;99.90;;;;;;5073189;28;20503;-65
2022/12/01 02:26:44;;;;;;;44.83;18.20;;;5.40;99.90;;;;;;5015355;28;20493;-65
2022/12/01 02:29:50;;;;;;;41.73;18.80;;;5.30;99.90;;;;;;5070327;28;20532;-65
2022/12/01 02:32:27;;;;;;;41.47;18.30;;;5.30;99.90;;;;;;5072905;28;20455;-65
2022/12/01 02:34:58;;;;;;;60.23;21.67;;;5.30;99.90;;;;;;5073593;28;20455;-65
2022/12/01 02:37:33;;;;;;;45.20;20.43;;;5.30;99.90;;;;;;5073490;28;20964;-65
2022/12/01 02:40:06;;;;;;;57.47;20.80;;;5.20;99.90;;;;;;5073299;28;20457;-66
2022/12/01 02:42:49;;;;;;;57.87;22.10;;;5.20;99.90;;;;;;5073310;28;20811;-65
2022/12/01 02:45:22;;;;;;;68.27;22.67;;;5.20;99.90;;;;;;5073084;28;20526;-65
2022/12/01 02:47:52;;;;;;;71.90;23.53;;;5.20;99.90;;;;;;5073331;28;20452;-65
2022/12/01 02:50:22;;;;;;;80.20;25.97;;;5.20;99.90;;;;;;5073140;28;20479;-65
2022/12/01 02:52:49;;;;;;;76.27;25.93;;;5.20;99.90;;;;;;5072503;28;20540;-65
2022/12/01 02:55:15;;;;;;;91.03;26.20;;;5.20;99.90;;;;;;5073020;28;20487;-66
2022/12/01 02:57:42;;;;;;;76.10;25.33;;;5.10;99.90;;;;;;5073299;28;20441;-65
2022/12/01 03:00:12;;;;;;;79.43;27.50;;;5.10;99.90;;;;;;5073080;28;20508;-65
2022/12/01 03:02:49;;;;;;;72.93;24.50;;;5.10;99.90;;;;;;5072802;28;20460;-65
2022/12/01 03:05:22;;;;;;;87.87;26.77;;;5.00;99.90;;;;;;5072641;28;20493;-65
2022/12/01 03:08:00;;;;;;;71.20;25.70;;;5.00;99.90;;;;;;5072666;28;20966;-65
2022/12/01 03:10:37;;;;;;;93.23;26.07;;;4.90;99.90;;;;;;5072907;28;20458;-65
2022/12/01 03:13:18;;;;;;;84.03;26.50;;;4.90;99.90;;;;;;5072670;28;20456;-65
2022/12/01 03:15:56;;;;;;;89.40;27.07;;;4.90;99.90;;;;;;5072196;28;20870;-65
2022/12/01 03:18:32;;;;;;;96.10;26.30;;;4.80;99.90;;;;;;5072744;28;20531;-65
2022/12/01 03:21:08;;;;;;;87.50;24.37;;;4.80;99.90;;;;;;5071820;28;20483;-65
2022/12/01 03:23:38;;;;;;;73.13;24.40;;;4.70;99.90;;;;;;5072342;28;20480;-65
2022/12/01 03:26:07;;;;;;;79.17;24.90;;;4.70;99.90;;;;;;5072250;28;20499;-65
2022/12/01 03:28:37;;;;;;;73.73;23.80;;;4.80;99.90;;;;;;5072612;28;20446;-65
2022/12/01 03:31:08;;;;;;;61.60;23.00;;;4.70;99.90;;;;;;5072120;28;20470;-65
2022/12/01 03:33:40;;;;;;;71.43;25.27;;;4.70;99.90;;;;;;5072140;28;20470;-65
2022/12/01 03:36:13;;;;;;;50.07;22.17;;;4.80;99.90;;;;;;5072113;28;20438;-65
2022/12/01 03:38:43;;;;;;;62.63;21.87;;;4.70;99.90;;;;;;5072167;28;20527;-65
2022/12/01 03:41:15;;;;;;;59.13;22.00;;;4.70;99.90;;;;;;5072084;28;20561;-65
2022/12/01 03:43:46;;;;;;;60.23;21.23;;;4.70;99.90;;;;;;5052096;28;20500;-65
2022/12/01 03:46:21;;;;;;;57.73;20.50;;;4.70;99.90;;;;;;5052045;28;20497;-65
2022/12/01 03:48:47;;;;;;;51.77;21.13;;;4.70;99.90;;;;;;5052129;28;20479;-65
2022/12/01 03:51:21;;;;;;;56.00;20.97;;;4.70;99.90;;;;;;5051938;28;20448;-65
2022/12/01 03:53:54;;;;;;;66.67;20.90;;;4.70;99.90;;;;;;5051713;28;20918;-65
2022/12/01 03:56:26;;;;;;;61.63;22.40;;;4.70;99.90;;;;;;5055047;28;20459;-65
2022/12/01 03:58:57;;;;;;;60.10;21.30;;;4.70;99.90;;;;;;5071862;28;20452;-65
2022/12/01 04:01:25;;;;;;;51.00;22.50;;;4.80;99.90;;;;;;5071917;28;20454;-65
2022/12/01 04:03:51;;;;;;;56.90;21.43;;;4.80;99.90;;;;;;5071418;28;20525;-65
2022/12/01 04:06:19;;;;;;;56.83;22.37;;;4.80;99.90;;;;;;5071709;28;20494;-65
2022/12/01 04:08:46;;;;;;;56.53;21.70;;;4.80;99.90;;;;;;5071727;28;20461;-65
2022/12/01 04:13:57;;;;;;;63.90;21.00;;;4.80;99.90;;;;;;5071439;28;20572;-65
2022/12/01 04:16:24;;;;;;;55.27;20.20;;;4.80;99.90;;;;;;5071584;28;20452;-65
2022/12/01 04:18:50;;;;;;;53.50;21.20;;;4.80;99.90;;;;;;5071421;28;20455;-65
2022/12/01 04:21:17;;;;;;;50.40;19.83;;;4.80;99.90;;;;;;5071596;28;20466;-65
2022/12/01 04:24:00;;;;;;;61.13;21.23;;;4.80;99.90;;;;;;5070780;28;20522;-65
2022/12/01 04:26:27;;;;;;;57.83;20.07;;;4.80;99.90;;;;;;5071546;28;20485;-65
2022/12/01 04:28:54;;;;;;;51.67;20.30;;;4.80;99.90;;;;;;5071512;28;20452;-65
2022/12/01 04:31:21;;;;;;;54.67;22.10;;;4.90;99.90;;;;;;5071087;28;20452;-65
2022/12/01 04:33:48;;;;;;;50.50;20.50;;;4.80;99.90;;;;;;5070858;28;20474;-65
2022/12/01 04:36:14;;;;;;;56.30;20.77;;;4.90;99.90;;;;;;5071182;28;20969;-65
2022/12/01 04:38:41;;;;;;;56.17;22.03;;;4.90;99.90;;;;;;5070975;28;20452;-65
2022/12/01 04:41:10;;;;;;;59.83;22.70;;;4.90;99.90;;;;;;5071101;28;20457;-65
2022/12/01 04:43:37;;;;;;;58.17;22.40;;;4.90;99.90;;;;;;5070865;28;20534;-65
2022/12/01 04:46:05;;;;;;;58.67;21.97;;;4.90;99.90;;;;;;5071185;28;21015;-65
2022/12/01 04:48:33;;;;;;;53.63;21.20;;;4.90;99.90;;;;;;5071116;28;20514;-65
2022/12/01 04:51:00;;;;;;;59.80;23.63;;;4.90;99.90;;;;;;5071430;28;20451;-65
2022/12/01 04:53:27;;;;;;;54.80;20.77;;;4.90;99.90;;;;;;5070726;28;20454;-65
2022/12/01 04:55:53;;;;;;;50.97;20.63;;;4.80;99.90;;;;;;5071188;28;20464;-65
2022/12/01 04:58:21;;;;;;;52.93;21.90;;;4.80;99.90;;;;;;5071073;28;20454;-65
2022/12/01 05:00:48;;;;;;;58.47;22.47;;;4.70;99.90;;;;;;5071082;28;20452;-65
2022/12/01 05:03:15;;;;;;;54.23;21.67;;;4.70;99.90;;;;;;5070333;28;20454;-65
2022/12/01 05:05:41;;;;;;;51.90;20.83;;;4.60;99.90;;;;;;5071039;28;20482;-65
2022/12/01 05:08:08;;;;;;;58.70;22.27;;;4.60;99.90;;;;;;5070597;28;20451;-65
2022/12/01 05:10:35;;;;;;;56.50;21.47;;;4.50;99.90;;;;;;5070836;28;20452;-65
2022/12/01 05:13:02;;;;;;;66.40;20.90;;;4.50;99.90;;;;;;5070591;28;20458;-65
2022/12/01 05:15:31;;;;;;;58.90;23.30;;;4.50;99.90;;;;;;5070642;28;20553;-65
2022/12/01 05:17:58;;;;;;;62.23;22.97;;;4.50;99.90;;;;;;5070665;28;20447;-65
2022/12/01 05:23:10;;;;;;;60.20;21.77;;;4.50;99.90;;;;;;5070575;28;20420;-65
2022/12/01 05:25:37;;;;;;;60.27;23.47;;;4.50;99.90;;;;;;5070744;28;20480;-65
2022/12/01 05:28:05;;;;;;;63.07;21.53;;;4.40;99.90;;;;;;5070478;28;20507;-65
2022/12/01 05:30:33;;;;;;;68.10;24.20;;;4.40;99.90;;;;;;5070878;28;20539;-65
2022/12/01 05:33:00;;;;;;;59.23;22.43;;;4.40;99.90;;;;;;5070382;28;20535;-65
2022/12/01 05:35:26;;;;;;;64.10;22.23;;;4.40;99.90;;;;;;5070578;28;20467;-65
2022/12/01 05:37:53;;;;;;;68.47;23.47;;;4.50;99.90;;;;;;5070436;28;20456;-65
2022/12/01 05:40:20;;;;;;;61.80;24.00;;;4.40;99.90;;;;;;5070430;28;20448;-65
2022/12/01 05:42:46;;;;;;;63.13;23.10;;;4.40;99.90;;;;;;5071394;28;20458;-65
2022/12/01 05:45:13;;;;;;;64.33;23.70;;;4.40;99.90;;;;;;5074319;28;20482;-65
2022/12/01 05:47:41;;;;;;;64.47;22.87;;;4.40;99.90;;;;;;5074128;28;20451;-65
2022/12/01 05:50:09;;;;;;;68.33;23.90;;;4.40;99.90;;;;;;5073792;28;20450;-65
2022/12/01 05:52:36;;;;;;;63.27;25.87;;;4.40;99.90;;;;;;5073708;28;20452;-65
2022/12/01 05:55:04;;;;;;;57.50;26.23;;;4.50;99.90;;;;;;5074166;28;20484;-65
2022/12/01 05:57:31;;;;;;;71.90;25.70;;;4.50;99.90;;;;;;5073305;28;20454;-65
2022/12/01 05:59:58;;;;;;;61.90;23.83;;;4.50;99.90;;;;;;5073978;28;20452;-65
2022/12/01 06:02:25;;;;;;;68.13;24.43;;;4.50;99.90;;;;;;5073440;28;20475;-65
2022/12/01 06:04:53;;;;;;;63.63;24.37;;;4.50;99.90;;;;;;5073811;28;20504;-66
2022/12/01 06:07:22;;;;;;;63.83;24.33;;;4.50;99.90;;;;;;5073666;28;20449;-65
2022/12/01 06:09:48;;;;;;;56.67;22.50;;;4.50;99.90;;;;;;5073830;28;20960;-65
2022/12/01 06:12:15;;;;;;;67.03;24.00;;;4.50;99.90;;;;;;5073716;28;20500;-65
2022/12/01 06:14:42;;;;;;;68.33;24.57;;;4.50;99.90;;;;;;5073814;28;20468;-65
2022/12/01 06:17:08;;;;;;;57.93;23.70;;;4.50;99.90;;;;;;5073570;28;20517;-65
2022/12/01 06:19:35;;;;;;;62.40;22.30;;;4.50;99.90;;;;;;5073597;28;20452;-65
2022/12/01 06:22:03;;;;;;;58.43;24.00;;;4.40;99.90;;;;;;5073699;28;20451;-65
2022/12/01 06:24:30;;;;;;;63.13;24.10;;;4.40;99.90;;;;;;5073125;28;20475;-66
2022/12/01 06:26:57;;;;;;;56.67;22.93;;;4.40;99.90;;;;;;5073484;28;20897;-65
2022/12/01 06:29:23;;;;;;;62.00;22.73;;;4.40;99.90;;;;;;5073689;28;20459;-65
2022/12/01 06:31:50;;;;;;;59.53;23.87;;;4.40;99.90;;;;;;5073387;28;20463;-65
2022/12/01 06:34:17;;;;;;;60.77;24.93;;;4.40;99.90;;;;;;5072954;28;20476;-65
2022/12/01 06:36:43;;;;;;;52.93;22.57;;;4.40;99.90;;;;;;5073621;28;20454;-65
2022/12/01 06:39:11;;;;;;;61.03;24.27;;;4.40;99.90;;;;;;5073315;28;20952;-65
2022/12/01 06:41:39;;;;;;;69.17;23.50;;;4.40;99.90;;;;;;5073207;28;20452;-65
2022/12/01 06:44:06;;;;;;;60.97;23.80;;;4.40;99.90;;;;;;5072964;28;20471;-65
2022/12/01 06:46:32;;;;;;;67.43;24.10;;;4.40;99.90;;;;;;5072873;28;20521;-65
2022/12/01 06:48:59;;;;;;;55.23;22.87;;;4.40;99.90;;;;;;5073351;28;20451;-64
2022/12/01 06:51:26;;;;;;;59.10;23.63;;;4.40;99.90;;;;;;5073234;28;20456;-65
2022/12/01 06:53:53;;;;;;;59.40;23.20;;;4.30;99.90;;;;;;5072802;28;20498;-65
2022/12/01 06:56:22;;;;;;;58.07;22.47;;;4.30;99.90;;;;;;5072848;28;20487;-65
2022/12/01 06:58:49;;;;;;;52.33;24.50;;;4.30;99.90;;;;;;5072632;28;20876;-65
2022/12/01 07:01:16;;;;;;;58.57;23.80;;;4.30;99.90;;;;;;5072927;28;20973;-65
2022/12/01 07:03:43;;;;;;;55.03;22.70;;;4.40;99.90;;;;;;5072215;28;20980;-65
2022/12/01 07:06:09;;;;;;;58.63;24.47;;;4.30;99.90;;;;;;5072735;28;20483;-65
2022/12/01 07:08:36;;;;;;;51.63;21.80;;;4.30;99.90;;;;;;5072356;28;20487;-65
2022/12/01 07:11:06;;;;;;;61.03;23.07;;;4.30;99.90;;;;;;5072872;28;20526;-65
2022/12/01 07:13:34;;;;;;;57.97;23.57;;;4.30;99.90;;;;;;5072251;28;20451;-65
2022/12/01 07:16:02;;;;;;;59.00;23.50;;;4.20;99.90;;;;;;5072814;28;20438;-65
2022/12/01 07:18:29;;;;;;;58.67;24.50;;;4.20;99.90;;;;;;5072827;28;20532;-65
2022/12/01 07:20:59;;;;;;;54.63;23.30;;;4.20;99.90;;;;;;5072544;28;20451;-65
2022/12/01 07:23:26;;;;;;;49.13;22.27;;;4.10;99.90;;;;;;5071573;28;20582;-67
2022/12/01 07:25:58;;;;;;;51.53;23.10;;;4.10;99.90;;;;;;5072175;28;20485;-67
2022/12/01 07:28:25;;;;;;;50.73;21.70;;;4.10;99.90;;;;;;5072341;28;20458;-66
2022/12/01 07:30:53;;;;;;;57.27;22.70;;;4.00;99.90;;;;;;5072590;28;20451;-67
2022/12/01 07:33:19;;;;;;;51.13;22.33;;;4.00;99.90;;;;;;5071485;28;20451;-67
2022/12/01 07:35:46;;;;;;;55.80;22.43;;;4.00;99.90;;;;;;5072120;28;20456;-67
2022/12/01 07:38:13;;;;;;;53.77;22.80;;;4.00;99.90;;;;;;5072222;28;20460;-67
2022/12/01 07:40:39;;;;;;;55.80;23.03;;;4.00;99.90;;;;;;5072138;28;20455;-67
2022/12/01 07:43:06;;;;;;;52.63;22.87;;;4.10;99.90;;;;;;5071914;28;20449;-67
2022/12/01 07:45:34;;;;;;;55.47;24.83;;;4.10;99.90;;;;;;5071752;28;20491;-67
2022/12/01 07:48:02;;;;;;;52.20;21.50;;;4.10;99.90;;;;;;5071333;28;20550;-66
2022/12/01 07:50:29;;;;;;;59.07;23.50;;;4.10;99.90;;;;;;5068213;28;20497;-66
2022/12/01 07:52:55;;;;;;;54.07;22.37;;;4.10;99.90;;;;;;5069387;28;20455;-66
2022/12/01 07:55:22;;;;;;;49.63;22.70;;;4.10;99.90;;;;;;5069145;28;20479;-67
2022/12/01 07:57:48;;;;;;;48.20;21.50;;;4.10;99.90;;;;;;5069884;28;20456;-66
2022/12/01 08:00:16;;;;;;;54.80;22.70;;;4.10;99.90;;;;;;5067693;28;20451;-67
2022/12/01 08:02:42;;;;;;;50.73;23.27;;;4.10;99.90;;;;;;5069011;28;20517;-67
2022/12/01 08:05:11;;;;;;;46.20;21.93;;;4.10;99.90;;;;;;5067758;28;20841;-67
2022/12/01 08:07:38;;;;;;;55.90;24.20;;;4.10;99.90;;;;;;5069465;28;20483;-68
2022/12/01 08:10:05;;;;;;;54.67;22.50;;;4.10;99.90;;;;;;5068987;28;20472;-68
2022/12/01 08:12:32;;;;;;;50.20;23.30;;;4.10;99.90;;;;;;5068725;28;20477;-68
2022/12/01 08:14:59;;;;;;;56.03;21.40;;;4.10;99.90;;;;;;5068452;28;20496;-67
2022/12/01 08:17:25;;;;;;;51.33;21.50;;;4.00;99.90;;;;;;5069714;28;20453;-68
2022/12/01 08:19:52;;;;;;;50.80;22.30;;;4.00;99.90;;;;;;5068239;28;20454;-67
2022/12/01 08:22:20;;;;;;;57.13;22.10;;;4.10;99.90;;;;;;5061627;28;20457;-67
2022/12/01 08:24:47;;;;;;;56.77;22.90;;;4.10;99.90;;;;;;5068512;28;20525;-68
2022/12/01 08:27:13;;;;;;;53.13;21.40;;;4.10;99.90;;;;;;5070270;28;20479;-68
2022/12/01 08:29:40;;;;;;;49.63;22.20;;;4.10;99.90;;;;;;5067658;28;20455;-69
2022/12/01 08:32:07;;;;;;;59.03;22.83;;;4.10;99.90;;;;;;5064688;28;20455;-67
2022/12/01 08:34:36;;;;;;;54.17;24.07;;;4.10;99.90;;;;;;5066374;28;20989;-68
2022/12/01 08:37:02;;;;;;;54.17;24.57;;;4.10;99.90;;;;;;5068369;28;20461;-68
2022/12/01 08:39:30;;;;;;;49.40;22.70;;;4.10;99.90;;;;;;5065377;28;20466;-68
2022/12/01 08:41:57;;;;;;;53.97;21.70;;;4.20;99.90;;;;;;5066914;28;21031;-68
2022/12/01 08:44:24;;;;;;;57.30;22.93;;;4.20;99.90;;;;;;5067743;28;20993;-68
2022/12/01 08:46:50;;;;;;;53.80;22.17;;;4.20;99.90;;;;;;5066525;28;20854;-68
2022/12/01 08:49:17;;;;;;;47.43;21.40;;;4.30;99.90;;;;;;5066048;28;20459;-68
2022/12/01 08:51:44;;;;;;;50.40;22.43;;;4.30;99.90;;;;;;5064787;28;20466;-67
2022/12/01 08:54:11;;;;;;;52.53;23.13;;;4.30;99.90;;;;;;5067946;28;20475;-69
2022/12/01 08:56:41;;;;;;;51.30;21.60;;;4.30;99.90;;;;;;5064448;28;20459;-70
2022/12/01 08:59:08;;;;;;;59.27;22.13;;;4.30;99.90;;;;;;5065678;28;21616;-69
2022/12/01 09:01:50;;;;;;;50.90;22.90;;;4.30;99.90;;;;;;5069347;28;20448;-69
2022/12/01 09:04:18;;;;;;;46.07;20.43;;;4.30;99.90;;;;;;5067463;28;20502;-68
2022/12/01 09:06:46;;;;;;;49.87;22.90;;;4.30;99.90;;;;;;5066596;28;20514;-69
2022/12/01 09:09:15;;;;;;;44.10;20.77;;;4.30;99.90;;;;;;5066171;28;20943;-70
2022/12/01 09:11:44;;;;;;;51.60;21.47;;;4.30;99.90;;;;;;5069176;28;20558;-69
2022/12/01 09:14:12;;;;;;;46.60;21.43;;;4.20;99.90;;;;;;5067667;28;20476;-68
2022/12/01 09:16:38;;;;;;;54.80;24.30;;;4.20;99.90;;;;;;5067579;28;20868;-69
2022/12/01 09:19:05;;;;;;;52.33;22.60;;;4.20;99.90;;;;;;5071701;28;20951;-68
2022/12/01 09:21:35;;;;;;;50.60;22.80;;;4.30;99.90;;;;;;5070849;28;20479;-69
2022/12/01 09:24:04;;;;;;;50.10;22.03;;;4.30;99.90;;;;;;5069999;28;20498;-69
2022/12/01 09:26:32;;;;;;;52.43;21.37;;;4.40;99.90;;;;;;5070455;28;20479;-69
2022/12/01 09:29:05;;;;;;;51.57;22.33;;;4.40;99.90;;;;;;5070230;28;20447;-67
2022/12/01 09:31:32;;;;;;;50.63;21.87;;;4.40;99.90;;;;;;5073630;28;20470;-68
2022/12/01 09:34:01;;;;;;;44.13;20.40;;;4.40;99.90;;;;;;5070793;28;20467;-68
2022/12/01 09:36:28;;;;;;;44.40;20.70;;;4.40;99.90;;;;;;5072071;28;20460;-69
2022/12/01 09:38:55;;;;;;;49.40;21.93;;;4.50;99.90;;;;;;5073167;28;20470;-67
2022/12/01 09:41:26;;;;;;;42.63;20.53;;;4.50;99.90;;;;;;5071682;28;20490;-68
2022/12/01 09:43:58;;;;;;;46.90;19.63;;;4.50;99.90;;;;;;5070773;28;20470;-68
2022/12/01 09:46:33;;;;;;;53.30;20.90;;;4.60;99.90;;;;;;5070162;28;20479;-68
2022/12/01 09:49:02;;;;;;;43.17;20.43;;;4.60;99.90;;;;;;5070467;28;20478;-71
2022/12/01 09:51:33;;;;;;;45.57;21.53;;;4.70;99.90;;;;;;5069012;28;20452;-67
2022/12/01 09:54:01;;;;;;;45.47;21.60;;;4.80;99.90;;;;;;5072084;28;20474;-67
2022/12/01 09:56:31;;;;;;;51.13;21.87;;;4.90;99.90;;;;;;5070770;28;20463;-68
2022/12/01 09:59:00;;;;;;;48.10;22.03;;;4.90;99.90;;;;;;5070766;28;20472;-67
2022/12/01 10:01:32;;;;;;;48.03;20.87;;;5.00;99.90;;;;;;5070343;28;20447;-68
2022/12/01 10:04:04;;;;;;;50.97;20.40;;;5.00;99.90;;;;;;5071989;28;20472;-68
2022/12/01 10:06:37;;;;;;;47.70;21.20;;;5.00;99.90;;;;;;5070116;28;20472;-68
2022/12/01 10:09:16;;;;;;;46.07;21.07;;;5.10;99.90;;;;;;5068506;28;20452;-68
2022/12/01 10:11:44;;;;;;;52.37;22.20;;;5.10;99.90;;;;;;5068640;28;20459;-69
2022/12/01 10:14:16;;;;;;;48.83;21.67;;;5.10;99.90;;;;;;5069442;28;20478;-68
2022/12/01 10:16:48;;;;;;;47.77;22.30;;;5.20;99.90;;;;;;5067061;28;20467;-68
2022/12/01 10:19:23;;;;;;;53.10;24.10;;;5.20;99.90;;;;;;5068791;28;20447;-69
2022/12/01 10:22:09;;;;;;;41.83;19.60;;;5.20;99.90;;;;;;5067733;28;20446;-69
2022/12/01 10:24:51;;;;;;;52.07;22.50;;;5.10;99.90;;;;;;5066651;28;20945;-68
2022/12/01 10:27:32;;;;;;;54.00;23.50;;;5.10;99.90;;;;;;5070713;28;20486;-68
2022/12/01 10:30:05;;;;;;;109.47;36.03;;;5.10;99.90;;;;;;5066868;28;20546;-67
2022/12/01 10:32:40;;;;;;;48.70;20.83;;;5.10;99.90;;;;;;5066612;28;20456;-69
2022/12/01 10:35:11;;;;;;;54.93;21.80;;;5.00;99.90;;;;;;5067797;28;20466;-69
2022/12/01 10:37:38;;;;;;;57.70;20.70;;;5.00;99.90;;;;;;5067166;28;20817;-68
2022/12/01 10:40:12;;;;;;;41.57;19.30;;;4.90;99.90;;;;;;5066835;28;20456;-68
2022/12/01 10:42:42;;;;;;;41.50;18.63;;;4.80;99.90;;;;;;5070822;28;20458;-68
2022/12/01 10:45:15;;;;;;;39.20;17.07;;;4.80;99.90;;;;;;5069680;28;20480;-68
2022/12/01 10:48:09;;;;;;;39.60;18.07;;;4.70;99.90;;;;;;5069707;28;20493;-68
2022/12/01 10:50:36;;;;;;;41.63;18.73;;;4.60;99.90;;;;;;5066782;28;20451;-68
2022/12/01 10:53:03;;;;;;;38.90;18.80;;;4.60;99.90;;;;;;5068098;28;20448;-68
2022/12/01 10:55:32;;;;;;;51.63;22.53;;;4.70;99.90;;;;;;5068745;28;20483;-68
2022/12/01 10:58:03;;;;;;;60.63;25.57;;;4.70;99.90;;;;;;5070279;28;20455;-69
2022/12/01 11:00:34;;;;;;;42.00;19.50;;;4.70;99.90;;;;;;5068943;28;20453;-68
2022/12/01 11:03:03;;;;;;;42.60;19.60;;;4.70;99.90;;;;;;5067120;28;20455;-69
2022/12/01 11:05:35;;;;;;;41.53;20.53;;;4.70;99.90;;;;;;5068360;28;20475;-68
2022/12/01 11:08:02;;;;;;;47.30;20.63;;;4.70;99.90;;;;;;5071145;28;20493;-68
2022/12/01 11:10:31;;;;;;;45.13;21.43;;;4.80;99.90;;;;;;5069775;28;20459;-68
2022/12/01 11:13:01;;;;;;;45.10;20.67;;;4.80;99.90;;;;;;5071283;28;21072;-68
2022/12/01 11:15:31;;;;;;;44.67;20.37;;;4.90;99.90;;;;;;5070969;28;20477;-68
2022/12/01 11:18:00;;;;;;;46.67;21.50;;;4.90;99.90;;;;;;5068224;28;20451;-68
2022/12/01 11:20:32;;;;;;;46.73;20.87;;;4.80;99.90;;;;;;5067641;28;20447;-68
2022/12/01 11:23:25;;;;;;;45.57;19.70;;;4.70;99.90;;;;;;5067295;28;20470;-68
2022/12/01 11:26:06;;;;;;;39.10;18.83;;;4.70;99.90;;;;;;5067792;28;20451;-68
2022/12/01 11:28:34;;;;;;;45.40;18.83;;;4.70;99.90;;;;;;5069923;28;20487;-68
2022/12/01 11:31:04;;;;;;;35.73;17.33;;;4.70;99.90;;;;;;5069920;28;20453;-69
2022/12/01 11:33:44;;;;;;;42.33;19.40;;;4.70;99.90;;;;;;5067263;28;20455;-68
2022/12/01 11:36:21;;;;;;;43.20;19.27;;;4.60;99.90;;;;;;5067556;28;20487;-69
2022/12/01 11:38:48;;;;;;;43.90;20.87;;;4.50;99.90;;;;;;5068805;28;20456;-67
2022/12/01 11:41:28;;;;;;;51.60;22.00;;;4.50;99.90;;;;;;5068346;28;22004;-67
2022/12/01 11:43:55;;;;;;;40.20;18.70;;;4.40;99.90;;;;;;5066578;28;20833;-68
2022/12/01 11:46:29;;;;;;;38.17;20.40;;;4.40;99.90;;;;;;5069487;28;20540;-67
2022/12/01 11:48:58;;;;;;;46.80;18.37;;;4.40;99.90;;;;;;5068124;28;20445;-67
2022/12/01 11:51:31;;;;;;;40.20;21.30;;;4.40;99.90;;;;;;5068161;28;20445;-67
2022/12/01 11:54:13;;;;;;;39.87;18.43;;;4.50;99.90;;;;;;5066568;28;20560;-66
2022/12/01 11:56:41;;;;;;;35.63;17.30;;;4.50;99.90;;;;;;5067107;28;20463;-67
2022/12/01 11:59:13;;;;;;;36.73;17.90;;;4.50;99.90;;;;;;5069122;28;20450;-66
2022/12/01 12:02:00;;;;;;;36.40;18.43;;;4.50;99.90;;;;;;5066715;28;20465;-67
2022/12/01 12:04:47;;;;;;;40.60;18.93;;;4.50;99.90;;;;;;5066225;28;20535;-67
2022/12/01 12:07:24;;;;;;;36.33;18.80;;;4.50;99.90;;;;;;5069245;28;20577;-67
2022/12/01 12:10:04;;;;;;;38.10;18.60;;;4.50;99.90;;;;;;5066046;28;20461;-67
2022/12/01 12:12:45;;;;;;;33.47;15.43;;;4.50;99.90;;;;;;5067985;28;20464;-67
2022/12/01 12:15:22;;;;;;;36.80;18.60;;;4.50;99.90;;;;;;5066857;28;20490;-69
2022/12/01 12:18:07;;;;;;;35.90;17.70;;;4.50;99.90;;;;;;5067848;28;20509;-67
2022/12/01 12:20:42;;;;;;;34.90;16.90;;;4.60;99.90;;;;;;5068659;28;20529;-68
2022/12/01 12:23:47;;;;;;;37.63;19.33;;;4.60;99.90;;;;;;5065008;28;20506;-67
2022/12/01 12:26:19;;;;;;;41.83;19.60;;;4.60;99.90;;;;;;5042617;28;20451;-68
2022/12/01 12:29:03;;;;;;;39.20;19.07;;;4.60;99.90;;;;;;5070027;28;20892;-67
2022/12/01 12:31:38;;;;;;;53.57;18.43;;;4.60;99.90;;;;;;5071039;28;20457;-67
2022/12/01 12:34:24;;;;;;;39.43;18.90;;;4.60;99.90;;;;;;5066703;28;20493;-67
2022/12/01 12:37:01;;;;;;;35.60;17.33;;;4.60;99.90;;;;;;5067496;28;20490;-67
2022/12/01 12:39:45;;;;;;;42.07;19.73;;;4.60;99.90;;;;;;5066934;28;20459;-67
2022/12/01 12:42:24;;;;;;;39.17;18.10;;;4.60;99.90;;;;;;5067667;28;20890;-67
2022/12/01 12:44:58;;;;;;;47.77;21.30;;;4.60;99.90;;;;;;5066597;28;20470;-67
2022/12/01 12:47:46;;;;;;;45.77;21.50;;;4.60;99.90;;;;;;5067520;28;20484;-67
2022/12/01 12:50:23;;;;;;;42.40;19.63;;;4.70;99.90;;;;;;5064710;28;20452;-67
2022/12/01 12:52:53;;;;;;;37.20;18.17;;;4.70;99.90;;;;;;5065569;28;20456;-67
2022/12/01 12:55:26;;;;;;;35.10;17.20;;;4.80;99.90;;;;;;5066634;28;20536;-67
2022/12/01 12:57:57;;;;;;;47.63;18.90;;;4.80;99.90;;;;;;5066398;28;20451;-67
2022/12/01 13:00:25;;;;;;;38.83;19.40;;;4.90;99.90;;;;;;5065923;28;20455;-67